Station Historical Data
 
Daily Summary for November 19, 2017 Units:  Metric    English   Both
« Previous Day
Next Day »
Daily Weekly Monthly Yearly Custom
  Current: High: Low: Average:
Temperature: 6.1 °C 6.6 °C 3.0 °C 4.3 °C
Dew Point: 1.6 °C 3.4 °C 1.1 °C 2 °C
Humidity: 73 % 93 % 73 % 85 %
Wind Speed: -1608.8 km/h 10.1 km/h -1608.8 km/h -176.1 km/h
Wind Gust: -1607.4 km/h 10.1 km/h - -
Wind:North - -
Pressure: 1011.7 hPa 1014.8 hPa 1011.7 hPa -
Precipitation: 0.0 mm      
Historical Graphs
 
 
Tabular Data for November 19, 2017
Time Temperature Dew Point Pressure Wind Wind Speed Wind Gust Humidity Rainfall Rate (Hourly) solar Conditions
00:52 4.6 °C 1.1 °C 1014.8 hPa SW 1.8 km/h 1.8 km/h 78 % 0.0 mm meteobridge W/m2
00:59 4.6 °C 1.1 °C 1014.8 hPa SW 1.8 km/h -1607.4 km/h 78 % 0.0 mm meteobridge W/m2
01:05 4.6 °C 1.3 °C 1013.8 hPa SW 1.8 km/h -1607.4 km/h 79 % 0.0 mm meteobridge W/m2
01:11 4.6 °C 1.3 °C 1013.8 hPa North -1608.8 km/h -1607.4 km/h 79 % 0.0 mm meteobridge W/m2
01:17 4.6 °C 1.3 °C 1013.8 hPa North -1608.8 km/h -1607.4 km/h 79 % 0.0 mm meteobridge W/m2
01:24 4.6 °C 1.3 °C 1013.8 hPa SW 1.4 km/h 1.8 km/h 79 % 0.0 mm meteobridge W/m2
01:31 4.6 °C 1.4 °C 1013.8 hPa WSW 6.9 km/h 6.9 km/h 80 % 0.0 mm meteobridge W/m2
01:37 4.6 °C 1.4 °C 1013.8 hPa SW 6.9 km/h 6.9 km/h 80 % 0.0 mm meteobridge W/m2
01:43 4.4 °C 1.3 °C 1013.8 hPa SSE 10.1 km/h 10.1 km/h 80 % 0.0 mm meteobridge W/m2
01:49 4.5 °C 1.4 °C 1013.8 hPa Calm   4.0 km/h 80 % 0.0 mm meteobridge W/m2
01:56 4.5 °C 1.4 °C 1013.8 hPa SSW 3.5 km/h 3.5 km/h 80 % 0.0 mm meteobridge W/m2
02:02 4.5 °C 1.5 °C 1013.8 hPa West 4.0 km/h 5.5 km/h 81 % 0.0 mm meteobridge W/m2
02:09 4.5 °C 1.5 °C 1013.8 hPa WSW 2.1 km/h 4.0 km/h 81 % 0.0 mm meteobridge W/m2
02:15 4.5 °C 1.5 °C 1013.8 hPa ESE 9.3 km/h 9.3 km/h 81 % 0.0 mm meteobridge W/m2
02:22 4.4 °C 1.4 °C 1013.8 hPa NW 1.8 km/h 3.2 km/h 81 % 0.0 mm meteobridge W/m2
02:28 4.4 °C 1.4 °C 1013.8 hPa SE 5.8 km/h 5.8 km/h 81 % 0.0 mm meteobridge W/m2
02:34 4.3 °C 1.3 °C 1013.8 hPa SSW 3.2 km/h 6.9 km/h 81 % 0.0 mm meteobridge W/m2
02:41 4.3 °C 1.3 °C 1013.8 hPa NNW 6.4 km/h 6.4 km/h 81 % 0.0 mm meteobridge W/m2
02:47 4.3 °C 1.5 °C 1013.8 hPa Calm   3.5 km/h 82 % 0.0 mm meteobridge W/m2
02:54 4.2 °C 1.4 °C 1013.8 hPa WSW 2.1 km/h 2.1 km/h 82 % 0.0 mm meteobridge W/m2
03:01 4.2 °C 1.4 °C 1013.8 hPa WSW 3.2 km/h 3.2 km/h 82 % 0.0 mm meteobridge W/m2
03:07 4.2 °C 1.6 °C 1012.8 hPa Calm   4.3 km/h 83 % 0.0 mm meteobridge W/m2
03:13 4.3 °C 1.5 °C 1012.8 hPa Calm     82 % 0.0 mm meteobridge W/m2
03:20 4.3 °C 1.7 °C 1012.8 hPa Calm   4.7 km/h 83 % 0.0 mm meteobridge W/m2
03:26 4.2 °C 1.6 °C 1012.8 hPa ENE 5.5 km/h 6.4 km/h 83 % 0.0 mm meteobridge W/m2
03:32 4.1 °C 1.5 °C 1012.8 hPa SSW 4.0 km/h 4.0 km/h 83 % 0.0 mm meteobridge W/m2
03:38 4.1 °C 1.6 °C 1012.8 hPa SW 2.6 km/h 5.5 km/h 84 % 0.0 mm meteobridge W/m2
03:44 4.0 °C 1.5 °C 1012.8 hPa West 2.6 km/h 3.5 km/h 84 % 0.0 mm meteobridge W/m2
03:50 4.0 °C 1.5 °C 1012.8 hPa WSW 7.2 km/h 7.2 km/h 84 % 0.0 mm meteobridge W/m2
03:56 4.0 °C 1.5 °C 1012.8 hPa WSW 1.4 km/h 1.4 km/h 84 % 0.0 mm meteobridge W/m2
04:02 4.0 °C 1.7 °C 1012.8 hPa WNW 4.0 km/h 4.0 km/h 85 % 0.0 mm meteobridge W/m2
04:08 3.9 °C 1.6 °C 1012.8 hPa SW 5.8 km/h 5.8 km/h 85 % 0.0 mm meteobridge W/m2
04:20 3.9 °C 1.6 °C 1012.8 hPa WSW 5.0 km/h 5.0 km/h 85 % 0.0 mm meteobridge W/m2
04:26 3.9 °C 1.6 °C 1012.8 hPa SW 1.8 km/h 1.8 km/h 85 % 0.0 mm meteobridge W/m2
04:32 3.9 °C 1.8 °C 1012.8 hPa Calm   4.7 km/h 86 % 0.0 mm meteobridge W/m2
04:36 3.8 °C 1.7 °C 1012.8 hPa WSW 1.4 km/h 4.3 km/h 86 % 0.0 mm meteobridge W/m2
04:40 3.8 °C 1.7 °C 1012.8 hPa Calm     86 % 0.0 mm meteobridge W/m2
04:46 3.7 °C 1.6 °C 1012.8 hPa WSW 1.8 km/h 3.5 km/h 86 % 0.0 mm meteobridge W/m2
04:52 3.6 °C 1.6 °C 1012.8 hPa Calm   1.8 km/h 87 % 0.0 mm meteobridge W/m2
04:56 3.5 °C 1.5 °C 1012.8 hPa WSW 1.4 km/h 1.4 km/h 87 % 0.0 mm meteobridge W/m2
05:02 3.3 °C 1.3 °C 1012.8 hPa Calm     87 % 0.0 mm meteobridge W/m2
05:04 3.3 °C 1.3 °C 1012.8 hPa SSW 2.1 km/h 2.1 km/h 87 % 0.0 mm meteobridge W/m2
05:10 3.3 °C 1.7 °C 1012.8 hPa WSW 1.8 km/h 6.4 km/h 89 % 0.0 mm meteobridge W/m2
05:16 3.3 °C 1.7 °C 1012.8 hPa West 3.5 km/h 5.8 km/h 89 % 0.0 mm meteobridge W/m2
05:22 3.4 °C 1.9 °C 1011.7 hPa SW 3.2 km/h 6.9 km/h 90 % 0.0 mm meteobridge W/m2
05:28 3.4 °C 1.9 °C 1011.7 hPa WSW 2.1 km/h 2.6 km/h 90 % 0.0 mm meteobridge W/m2
05:34 3.6 °C 2.1 °C 1011.7 hPa Calm   4.7 km/h 90 % 0.0 mm meteobridge W/m2
05:46 3.6 °C 2.1 °C 1011.7 hPa Calm   2.1 km/h 90 % 0.0 mm meteobridge W/m2
05:52 3.6 °C 2.1 °C 1011.7 hPa WSW 2.1 km/h 4.3 km/h 90 % 0.0 mm meteobridge W/m2
06:04 3.7 °C 2.2 °C 1011.7 hPa Calm     90 % 0.0 mm meteobridge W/m2
06:10 3.7 °C 2.2 °C 1011.7 hPa Calm   5.8 km/h 90 % 0.0 mm meteobridge W/m2
06:16 3.7 °C 2.2 °C 1011.7 hPa Calm     90 % 0.0 mm meteobridge W/m2
06:22 3.7 °C 2.4 °C 1011.7 hPa WSW 4.0 km/h 4.0 km/h 91 % 0.0 mm meteobridge W/m2
06:28 3.7 °C 2.4 °C 1011.7 hPa SW 3.2 km/h 4.3 km/h 91 % 0.0 mm meteobridge W/m2
06:34 3.6 °C 2.3 °C 1011.7 hPa West 5.0 km/h 5.0 km/h 91 % 0.0 mm meteobridge W/m2
06:40 3.4 °C 2.1 °C 1011.7 hPa West 3.2 km/h 3.2 km/h 91 % 0.0 mm meteobridge W/m2
06:46 3.3 °C 2.0 °C 1011.7 hPa WSW 4.3 km/h 4.3 km/h 91 % 0.0 mm meteobridge W/m2
07:10 3.1 °C 1.9 °C 1011.7 hPa WNW 4.7 km/h 4.7 km/h 92 % 0.0 mm meteobridge W/m2
07:16 3.0 °C 1.8 °C 1011.7 hPa West 6.9 km/h 6.9 km/h 92 % 0.0 mm meteobridge W/m2
07:22 3.2 °C 2.2 °C 1011.7 hPa Calm     93 % 0.0 mm meteobridge W/m2
07:28 3.3 °C 2.1 °C 1011.7 hPa WSW 1.8 km/h 5.0 km/h 92 % 0.0 mm meteobridge W/m2
07:34 3.4 °C 2.4 °C 1011.7 hPa SSW 3.2 km/h 5.0 km/h 93 % 0.0 mm meteobridge W/m2
07:40 3.5 °C 2.5 °C 1011.7 hPa Calm   2.1 km/h 93 % 0.0 mm meteobridge W/m2
07:46 3.5 °C 2.3 °C 1011.7 hPa WSW 5.0 km/h 5.0 km/h 92 % 0.0 mm meteobridge W/m2
08:04 3.4 °C 2.2 °C 1011.7 hPa Calm     92 % 0.0 mm meteobridge W/m2
08:10 3.5 °C 2.3 °C 1011.7 hPa Calm     92 % 0.0 mm meteobridge W/m2
08:16 3.5 °C 2.3 °C 1011.7 hPa Calm     92 % 0.0 mm meteobridge W/m2
08:28 3.3 °C 2.1 °C 1011.7 hPa Calm   3.2 km/h 92 % 0.0 mm meteobridge W/m2
08:34 3.5 °C 2.3 °C 1011.7 hPa Calm     92 % 0.0 mm meteobridge W/m2
08:40 3.7 °C 2.5 °C 1011.7 hPa WSW 1.4 km/h 2.1 km/h 92 % 0.0 mm meteobridge W/m2
08:54 3.9 °C 2.7 °C 1011.7 hPa Calm     92 % 0.0 mm meteobridge W/m2
09:02 3.9 °C 2.7 °C 1011.7 hPa Calm   -1607.4 km/h 92 % 0.0 mm meteobridge W/m2
09:20 3.5 °C 2.2 °C 1011.7 hPa North -1608.8 km/h -1607.4 km/h 91 % 0.0 mm meteobridge W/m2
09:32 3.7 °C 2.5 °C 1011.7 hPa North -1608.8 km/h -1607.4 km/h 92 % 0.0 mm meteobridge W/m2
09:38 4.2 °C 3.0 °C 1011.7 hPa Calm   3.2 km/h 92 % 0.0 mm meteobridge W/m2
09:50 4.7 °C 3.4 °C 1011.7 hPa SW 1.4 km/h 1.4 km/h 91 % 0.0 mm meteobridge W/m2
10:08 4.8 °C 3.1 °C 1012.8 hPa WSW 7.2 km/h 7.2 km/h 89 % 0.0 mm meteobridge W/m2
10:14 5.0 °C 3.3 °C 1012.8 hPa Calm     89 % 0.0 mm meteobridge W/m2
10:20 5.1 °C 3.4 °C 1012.8 hPa NNW 6.1 km/h -1607.4 km/h 89 % 0.0 mm meteobridge W/m2
10:26 4.6 °C 2.5 °C 1012.8 hPa NNW 6.1 km/h 6.1 km/h 86 % 0.0 mm meteobridge W/m2
10:32 4.5 °C 2.4 °C 1012.8 hPa NNW 6.1 km/h 6.1 km/h 86 % 0.0 mm meteobridge W/m2
10:38 4.5 °C 2.2 °C 1012.8 hPa NNW 6.1 km/h -1607.4 km/h 85 % 0.0 mm meteobridge W/m2
11:02 4.7 °C 2.1 °C 1012.8 hPa SSE 5.8 km/h 5.8 km/h 83 % 0.0 mm meteobridge W/m2
11:08 4.7 °C 2.1 °C 1011.7 hPa WSW 4.7 km/h -1607.4 km/h 83 % 0.0 mm meteobridge W/m2
11:26 5.8 °C 2.8 °C 1011.7 hPa WNW 4.0 km/h 4.0 km/h 81 % 0.0 mm meteobridge W/m2
11:32 5.6 °C 2.4 °C 1011.7 hPa SSE 6.4 km/h 6.4 km/h 80 % 0.0 mm meteobridge W/m2
11:38 5.6 °C 2.4 °C 1011.7 hPa WSW 6.1 km/h 6.1 km/h 80 % 0.0 mm meteobridge W/m2
11:44 6.0 °C 2.6 °C 1011.7 hPa SW 6.1 km/h -1607.4 km/h 79 % 0.0 mm meteobridge W/m2
11:56 6.4 °C 2.8 °C 1011.7 hPa NNW 6.1 km/h 6.1 km/h 78 % 0.0 mm meteobridge W/m2
12:08 6.4 °C 2.7 °C 1011.7 hPa NNW 6.1 km/h -1607.4 km/h 77 % 0 mm meteobridge W/m2
12:14 6.3 °C 2.2 °C 1011.7 hPa NNW 6.1 km/h -1607.4 km/h 75 % 0 mm meteobridge W/m2
12:20 6.6 °C 2.5 °C 1011.7 hPa North -1608.8 km/h -1607.4 km/h 75 % 0 mm meteobridge W/m2
12:26 6.4 °C 2.3 °C 1011.7 hPa North -1608.8 km/h -1607.4 km/h 75 % 0 mm meteobridge W/m2
12:32 6.4 °C 2.3 °C 1011.7 hPa North -1608.8 km/h -1607.4 km/h 75 % 0 mm meteobridge W/m2
12:38 6.0 °C 1.9 °C 1011.7 hPa North -1608.8 km/h -1607.4 km/h 75 % 0 mm meteobridge W/m2
12:56 6.0 °C 1.9 °C 1011.7 hPa North -1608.8 km/h -1607.4 km/h 75 % 0 mm meteobridge W/m2
13:02 6.0 °C 1.9 °C 1011.7 hPa Calm     75 % 0 mm meteobridge W/m2
13:32 6.0 °C 1.9 °C 1011.7 hPa North -1608.8 km/h -1607.4 km/h 75 % 0 mm meteobridge W/m2
14:32 6.1 °C 1.6 °C 1011.7 hPa North -1608.8 km/h -1607.4 km/h 73 % 0.0 mm meteobridge W/m2
Juneau County Weather
Compliments of Weather Underground - 1.75 mb